Airfield :
LOGIN :

Register | Disclaimer

   EN    FR    IT 

 










Legend :    VFR   Marginal VFR   IFR   Intensive IFR   Very Intensive IFR
Visi :
Ceiling :
>= 8 km
>= 3000ft
5 to 8 km
1000 to 3000 ft
1500m to 5 km
500 to 1000 ft
800 to 1500m
200 to 500 ft
< 800m
< 200 ft
Symbols :   Thunderstorms  Fog  Heavy snow  Heavy precipitations  Wind > 20 kt
SIGMETs :     Misc.  Thunderstorms  Icing  Turbulence  Mountain Waves  Volcanic Ashes







- Airport Elevation : 55 ft
- IATA code : DSA
- Download approach charts


EGCN - Robin Hood Doncaster Sheffield

CURRENT METAR :
  • 201420Z 29009KT 250V320 CAVOK 25/09 Q1013

EXPIRED METARs :
  • 201350Z 23011KT 200V270 CAVOK 26/10 Q1013
  • 201320Z 22008G20KT 190V280 CAVOK 27/10 Q1013
  • 201250Z 22009KT 170V250 CAVOK 26/10 Q1013
  • 201220Z 23008KT 200V280 CAVOK 26/09 Q1013
  • 201150Z 23010G20KT 190V300 CAVOK 26/09 Q1014

TAF AMD TAF EGCN
Valid from the 20 at 12:00 until the 21 at 12:00 UTC


201208Z 2012/2112 23010KT 9999 FEW045
BECMG 2014/2017 30006KT
TEMPO 2015/2021 7000 RA
No reported NOTAMs for that airfield.



MET'MAP, your aeronautical weather chart ! - Copyright ORBIFLY December 2007 - Disclaimer

ORBIFLY MET'MAP TEAM :

Programming & Development : Alexandra Zaïnal
Concept & Development : Baudouin d'Aumeries
Co-Development & Prog : Marc-Olivier Méhu
Technical & hardware support : Manuel Goepfert

Contact : metmap@orbifly.com




SOURCES & CREDITS :

   NOAA